createdAt,value
2018-01-17T00:01:47.308Z,7.95
2018-01-17T00:04:14.844Z,8.95
2018-01-17T00:06:42.637Z,2.20
2018-01-17T00:09:10.191Z,3.90
2018-01-17T00:11:37.732Z,7.53
2018-01-17T00:14:05.259Z,6.20
2018-01-17T00:16:32.796Z,3.17
2018-01-17T00:19:00.359Z,4.10
2018-01-17T00:21:27.897Z,3.87
2018-01-17T00:23:56.216Z,2.78
2018-01-17T00:26:24.631Z,6.78
2018-01-17T00:28:52.163Z,4.95
2018-01-17T00:31:19.704Z,3.30
2018-01-17T00:33:48.049Z,3.72
2018-01-17T00:36:15.609Z,4.57
2018-01-17T00:38:43.156Z,3.87
2018-01-17T00:41:10.708Z,10.73
2018-01-17T00:43:38.248Z,10.68
2018-01-17T00:46:05.788Z,8.02
2018-01-17T00:48:34.098Z,4.53
2018-01-17T00:51:01.641Z,4.60
2018-01-17T00:53:29.939Z,5.25
2018-01-17T00:55:57.472Z,6.87
2018-01-17T00:58:25.016Z,8.45
2018-01-17T01:00:52.554Z,5.18
2018-01-17T01:03:20.092Z,4.93
2018-01-17T01:05:47.627Z,6.30
2018-01-17T01:08:15.159Z,4.78
2018-01-17T01:10:42.695Z,8.55
2018-01-17T01:13:10.230Z,5.82
2018-01-17T01:15:38.536Z,1.67
2018-01-17T01:18:06.075Z,3.83
2018-01-17T01:20:34.384Z,5.80
2018-01-17T01:23:01.928Z,3.72
2018-01-17T01:25:30.264Z,3.50
2018-01-17T01:27:57.810Z,2.85
2018-01-17T01:30:25.380Z,5.60
2018-01-17T01:32:52.948Z,3.87
2018-01-17T01:35:20.488Z,6.15
2018-01-17T01:37:48.023Z,5.40
2018-01-17T01:40:16.331Z,7.00
2018-01-17T01:42:43.915Z,4.43
2018-01-17T01:45:11.453Z,4.85
2018-01-17T01:47:38.997Z,11.88
2018-01-17T01:50:07.311Z,10.80
2018-01-17T01:52:34.847Z,3.58
2018-01-17T01:55:03.152Z,7.62
2018-01-17T01:57:30.699Z,8.00
2018-01-17T01:59:59.008Z,8.77
2018-01-17T02:02:27.562Z,4.97
2018-01-17T02:04:55.112Z,7.47
2018-01-17T02:07:22.653Z,5.47
2018-01-17T02:09:50.188Z,7.07
2018-01-17T02:12:17.731Z,12.55
2018-01-17T02:14:45.279Z,11.43
2018-01-17T02:17:12.855Z,8.57
2018-01-17T02:19:40.623Z,4.07
2018-01-17T02:22:08.168Z,9.70
2018-01-17T02:24:36.483Z,8.00
2018-01-17T02:27:04.027Z,11.40
2018-01-17T02:29:31.562Z,7.10
2018-01-17T02:31:59.103Z,5.03
2018-01-17T02:34:26.652Z,4.00
2018-01-17T02:36:54.228Z,4.60
2018-01-17T02:39:21.803Z,7.18
2018-01-17T02:41:49.341Z,7.37
2018-01-17T02:44:16.879Z,7.07
2018-01-17T02:46:44.411Z,3.28
2018-01-17T02:49:11.996Z,3.00
2018-01-17T02:51:39.549Z,9.10
2018-01-17T02:54:08.124Z,11.77
2018-01-17T02:56:35.896Z,9.90
2018-01-17T02:59:03.438Z,4.00
2018-01-17T03:01:30.976Z,6.70
2018-01-17T03:03:58.511Z,5.32
2018-01-17T03:06:26.059Z,5.85
2018-01-17T03:08:53.611Z,11.35
2018-01-17T03:11:21.183Z,3.22
2018-01-17T03:13:49.491Z,3.20
2018-01-17T03:16:17.032Z,5.80
2018-01-17T03:18:45.330Z,8.50
2018-01-17T03:21:12.863Z,4.53
2018-01-17T03:23:40.408Z,4.55
2018-01-17T03:26:07.952Z,8.23
2018-01-17T03:28:35.496Z,6.87
2018-01-17T03:31:03.042Z,5.22
2018-01-17T03:33:30.724Z,8.45
2018-01-17T03:35:58.255Z,9.23
2018-01-17T03:38:26.563Z,5.85
2018-01-17T03:40:54.095Z,5.30
2018-01-17T03:43:22.446Z,8.73
2018-01-17T03:45:49.971Z,8.43
2018-01-17T03:48:17.507Z,10.35
2018-01-17T03:50:45.819Z,6.62
2018-01-17T03:53:13.359Z,5.55
2018-01-17T03:55:41.668Z,8.55
2018-01-17T03:58:09.213Z,8.80
2018-01-17T04:00:36.752Z,8.57
2018-01-17T04:03:04.287Z,5.93
2018-01-17T04:05:31.823Z,4.68
2018-01-17T04:07:59.359Z,6.43
2018-01-17T04:10:27.662Z,9.65
2018-01-17T04:12:55.207Z,11.12
2018-01-17T04:15:23.518Z,12.35
2018-01-17T04:17:51.059Z,12.60
2018-01-17T04:20:19.359Z,12.27
2018-01-17T04:22:46.896Z,8.30
2018-01-17T04:25:15.204Z,8.73
2018-01-17T04:27:42.788Z,17.37
2018-01-17T04:30:10.329Z,5.10
2018-01-17T04:32:37.902Z,10.35
2018-01-17T04:35:05.439Z,5.75
2018-01-17T04:37:33.011Z,7.65
2018-01-17T04:40:00.551Z,6.70
2018-01-17T04:42:28.083Z,10.40
2018-01-17T04:44:55.624Z,8.75
2018-01-17T04:47:23.157Z,13.40
2018-01-17T04:49:51.466Z,8.13
2018-01-17T04:52:19.003Z,7.75
2018-01-17T04:54:47.303Z,8.93
2018-01-17T04:57:14.849Z,8.18
2018-01-17T04:59:42.403Z,11.80
2018-01-17T05:02:09.984Z,8.88
2018-01-17T05:04:37.520Z,8.38
2018-01-17T05:07:05.088Z,10.23
2018-01-17T05:09:34.451Z,12.75
2018-01-17T05:12:01.983Z,8.10
2018-01-17T05:14:29.523Z,14.95
2018-01-17T05:16:57.837Z,9.45
2018-01-17T05:19:25.374Z,10.98
2018-01-17T05:21:53.683Z,14.38
2018-01-17T05:24:21.231Z,7.12
2018-01-17T05:26:48.773Z,12.95
2018-01-17T05:29:17.087Z,11.38
2018-01-17T05:31:44.629Z,7.45
2018-01-17T05:34:13.143Z,13.80
2018-01-17T05:36:40.684Z,8.48
2018-01-17T05:39:08.991Z,11.20
2018-01-17T05:41:36.535Z,10.57
2018-01-17T05:44:04.076Z,6.87
2018-01-17T05:46:32.388Z,8.77
2018-01-17T05:48:59.928Z,5.25
2018-01-17T05:51:28.231Z,12.98
2018-01-17T05:53:55.777Z,5.93
2018-01-17T05:56:24.088Z,6.85
2018-01-17T05:58:51.625Z,9.15
2018-01-17T06:01:19.931Z,9.80
2018-01-17T06:03:47.476Z,10.25
2018-01-17T06:06:15.015Z,10.20
2018-01-17T06:08:42.564Z,13.25
2018-01-17T06:11:10.108Z,14.90
2018-01-17T06:13:37.653Z,19.98
2018-01-17T06:16:05.199Z,30.37
2018-01-17T06:18:32.746Z,18.17
2018-01-17T06:21:01.056Z,15.88
2018-01-17T06:23:28.617Z,16.25
2018-01-17T06:25:56.161Z,14.48
2018-01-17T06:28:24.476Z,10.48
2018-01-17T06:30:52.780Z,13.62
2018-01-17T06:33:20.320Z,21.42
2018-01-17T06:35:47.856Z,8.55
2018-01-17T06:38:15.395Z,21.10
2018-01-17T06:40:42.942Z,16.33
2018-01-17T06:43:10.498Z,12.05
2018-01-17T06:45:38.070Z,9.93
2018-01-17T06:48:05.644Z,8.45
2018-01-17T06:50:33.187Z,18.20
2018-01-17T06:53:00.731Z,15.15
2018-01-17T06:55:28.271Z,13.98
2018-01-17T06:57:55.812Z,17.25
2018-01-17T07:00:23.356Z,24.37
2018-01-17T07:02:50.904Z,10.57
2018-01-17T07:05:18.451Z,16.35
2018-01-17T07:07:46.003Z,16.83
2018-01-17T07:10:13.540Z,9.98
2018-01-17T07:12:41.863Z,12.00
2018-01-17T07:15:09.408Z,14.45
2018-01-17T07:17:36.939Z,19.90
2018-01-17T07:20:05.253Z,12.95
2018-01-17T07:22:32.823Z,13.80
2018-01-17T07:25:00.365Z,16.27
2018-01-17T07:27:27.908Z,20.77
2018-01-17T07:29:55.447Z,23.62
2018-01-17T07:32:22.989Z,20.23
2018-01-17T07:34:50.528Z,14.40
2018-01-17T07:37:18.075Z,18.00
2018-01-17T07:39:46.385Z,14.70
2018-01-17T07:42:13.918Z,10.90
2018-01-17T07:44:42.227Z,7.80
2018-01-17T07:47:09.768Z,8.25
2018-01-17T07:49:38.075Z,9.23
2018-01-17T07:52:05.612Z,9.82
2018-01-17T07:54:33.979Z,9.20
2018-01-17T07:57:02.286Z,10.23
2018-01-17T07:59:29.835Z,12.13
2018-01-17T08:01:58.149Z,12.55
2018-01-17T08:04:35.996Z,12.23
2018-01-17T08:07:03.544Z,13.55
2018-01-17T08:09:31.080Z,12.55
2018-01-17T08:11:58.631Z,14.55
2018-01-17T08:14:26.163Z,13.88
2018-01-17T08:16:54.472Z,11.40
2018-01-17T08:19:22.011Z,9.38
2018-01-17T08:21:50.351Z,10.30
2018-01-17T08:24:17.891Z,10.32
2018-01-17T08:26:45.565Z,11.12
2018-01-17T08:29:13.109Z,20.52
2018-01-17T08:31:40.647Z,15.50
2018-01-17T08:34:08.956Z,13.50
2018-01-17T08:36:36.500Z,13.68
2018-01-17T08:39:04.807Z,12.18
2018-01-17T08:41:32.340Z,9.05
2018-01-17T08:44:00.643Z,13.30
2018-01-17T08:46:28.188Z,21.48
2018-01-17T08:48:56.496Z,14.23
2018-01-17T08:51:24.040Z,20.50
2018-01-17T08:53:52.385Z,12.25
2018-01-17T08:56:19.932Z,14.20
2018-01-17T08:58:47.495Z,14.77
2018-01-17T09:01:15.032Z,16.58
2018-01-17T09:03:42.568Z,14.87
2018-01-17T09:06:10.879Z,12.75
2018-01-17T09:08:38.419Z,13.38
2018-01-17T09:11:06.723Z,20.25
2018-01-17T09:13:34.263Z,12.07
2018-01-17T09:16:02.572Z,12.73
2018-01-17T09:18:30.108Z,11.93
2018-01-17T09:20:58.443Z,11.50
2018-01-17T09:23:25.980Z,11.88
2018-01-17T09:25:53.511Z,8.20
2018-01-17T09:28:21.811Z,6.72
2018-01-17T09:30:49.356Z,18.10
2018-01-17T09:33:17.657Z,8.82
2018-01-17T09:35:45.188Z,9.63
2018-01-17T09:38:12.724Z,10.38
2018-01-17T09:40:40.259Z,8.68
2018-01-17T09:43:07.783Z,9.98
2018-01-17T09:45:36.087Z,10.10
2018-01-17T09:48:03.619Z,6.57
2018-01-17T09:50:31.155Z,10.00
2018-01-17T09:52:58.688Z,12.57
2018-01-17T09:55:26.229Z,7.18
2018-01-17T09:57:54.523Z,8.48
2018-01-17T10:00:22.061Z,8.35
2018-01-17T10:02:49.587Z,17.50
2018-01-17T10:05:17.119Z,20.40
2018-01-17T10:07:44.660Z,18.55
2018-01-17T10:10:12.967Z,10.93
2018-01-17T10:12:40.509Z,11.95
2018-01-17T10:15:08.228Z,8.43
2018-01-17T10:17:35.771Z,11.32
2018-01-17T10:20:03.376Z,17.80
2018-01-17T10:22:30.917Z,7.60
2018-01-17T10:24:58.463Z,6.55
2018-01-17T10:27:25.992Z,3.62
2018-01-17T10:29:54.475Z,9.18
2018-01-17T10:35:14.243Z,4.93
2018-01-17T10:37:41.817Z,7.78
2018-01-17T10:40:10.166Z,5.82
2018-01-17T10:42:37.750Z,6.35
2018-01-17T10:45:05.347Z,3.65
2018-01-17T10:47:32.926Z,6.50
2018-01-17T10:50:00.506Z,2.47
2018-01-17T10:52:28.087Z,4.70
2018-01-17T10:54:55.802Z,1.30
2018-01-17T10:57:24.207Z,1.33
2018-01-17T10:59:51.885Z,2.35
2018-01-17T11:02:19.470Z,1.30
2018-01-17T11:04:47.067Z,4.32
2018-01-17T11:07:14.651Z,1.48
2018-01-17T11:09:42.238Z,3.20
2018-01-17T11:12:09.818Z,3.62
2018-01-17T11:14:37.402Z,3.33
2018-01-17T11:17:04.978Z,4.65
2018-01-17T11:19:32.558Z,2.80
2018-01-17T11:22:00.910Z,3.60
2018-01-17T11:24:28.491Z,2.55
2018-01-17T11:26:56.071Z,6.95
2018-01-17T11:29:23.663Z,6.90
2018-01-17T11:31:56.727Z,4.87
2018-01-17T11:34:25.088Z,2.40
2018-01-17T11:36:52.695Z,5.35
2018-01-17T11:39:20.327Z,3.53
2018-01-17T11:41:47.918Z,6.78
2018-01-17T11:44:15.514Z,9.20
2018-01-17T11:46:43.120Z,2.17
2018-01-17T11:49:10.718Z,2.20
2018-01-17T11:51:38.319Z,17.17
2018-01-17T11:54:05.931Z,7.53
2018-01-17T11:56:34.286Z,1.92
2018-01-17T11:59:01.878Z,2.45
2018-01-17T12:01:29.471Z,3.17
2018-01-17T12:06:30.858Z,1.30
2018-01-17T12:08:58.475Z,2.10
2018-01-17T12:11:26.875Z,4.37
2018-01-17T12:13:54.523Z,7.00
2018-01-17T12:16:22.875Z,3.17
2018-01-17T12:18:50.476Z,5.30
2018-01-17T12:21:18.919Z,5.50
2018-01-17T12:23:46.518Z,3.42
2018-01-17T12:26:14.114Z,2.22
2018-01-17T12:28:41.747Z,7.65
2018-01-17T12:31:09.346Z,4.80
2018-01-17T12:33:36.935Z,5.37
2018-01-17T12:36:05.474Z,2.85
2018-01-17T12:38:39.899Z,4.50
2018-01-17T12:41:08.242Z,3.20
2018-01-17T12:43:35.908Z,4.80
2018-01-17T12:46:03.572Z,8.43
2018-01-17T12:48:31.160Z,3.50
2018-01-17T12:51:00.032Z,2.12
2018-01-17T12:53:27.614Z,2.95
2018-01-17T12:55:55.186Z,3.50
2018-01-17T12:58:22.758Z,3.67
2018-01-17T13:00:50.363Z,6.87
2018-01-17T13:03:18.255Z,3.30
2018-01-17T13:05:45.867Z,6.57
2018-01-17T13:08:14.210Z,4.87
2018-01-17T13:10:41.785Z,4.70
2018-01-17T13:13:09.360Z,2.00
2018-01-17T13:15:36.955Z,6.25
2018-01-17T13:18:04.571Z,2.95
2018-01-17T13:20:32.154Z,9.25
2018-01-17T13:22:59.778Z,5.03
2018-01-17T13:25:27.358Z,5.80
2018-01-17T13:27:54.936Z,13.52
2018-01-17T13:30:22.519Z,6.75
2018-01-17T13:32:50.857Z,2.40
2018-01-17T13:35:18.430Z,5.53
2018-01-17T13:37:45.998Z,6.65
2018-01-17T13:40:13.586Z,6.85
2018-01-17T13:42:41.203Z,6.43
2018-01-17T13:45:08.826Z,7.82
2018-01-17T13:47:41.640Z,8.20
2018-01-17T13:50:09.498Z,6.50
2018-01-17T13:52:38.755Z,10.93
2018-01-17T13:55:06.360Z,6.75
2018-01-17T13:57:35.628Z,3.55
2018-01-17T14:00:03.302Z,9.80
2018-01-17T14:02:30.894Z,6.55
2018-01-17T14:04:58.547Z,4.40
2018-01-17T14:07:26.132Z,10.13
2018-01-17T14:09:54.478Z,7.47
2018-01-17T14:12:22.054Z,2.50
2018-01-17T14:14:49.659Z,4.72
2018-01-17T14:17:17.288Z,3.95
2018-01-17T14:19:44.970Z,6.55
2018-01-17T14:22:13.308Z,6.93
2018-01-17T14:24:40.907Z,9.07
2018-01-17T14:27:09.258Z,8.85
2018-01-17T14:29:36.927Z,5.25
2018-01-17T14:32:04.509Z,6.30
2018-01-17T14:34:32.109Z,3.37
2018-01-17T14:37:00.774Z,6.90
2018-01-17T14:39:29.127Z,3.35
2018-01-17T14:41:56.744Z,8.82
2018-01-17T14:44:24.391Z,7.07
2018-01-17T14:46:52.798Z,6.07
2018-01-17T14:49:20.674Z,3.03
2018-01-17T14:51:48.302Z,4.20
2018-01-17T14:54:15.880Z,4.97
2018-01-17T14:56:44.264Z,15.63
2018-01-17T14:59:12.733Z,4.22
2018-01-17T15:01:40.327Z,5.95
2018-01-17T15:04:07.913Z,4.72
2018-01-17T15:06:35.553Z,6.68
2018-01-17T15:09:03.970Z,5.80
2018-01-17T15:11:31.610Z,3.00
2018-01-17T15:13:59.199Z,7.18
2018-01-17T15:16:26.781Z,2.50
2018-01-17T15:18:54.381Z,5.60
2018-01-17T15:21:22.807Z,9.02
2018-01-17T15:23:50.414Z,3.92
2018-01-17T15:26:18.024Z,14.93
2018-01-17T15:28:45.640Z,9.45
2018-01-17T15:31:13.221Z,6.65
2018-01-17T15:33:40.801Z,6.95
2018-01-17T15:36:09.146Z,8.77
2018-01-17T15:38:36.725Z,13.65
2018-01-17T15:41:04.303Z,5.95
2018-01-17T15:43:32.854Z,3.35
2018-01-17T15:46:00.501Z,6.22
2018-01-17T15:48:28.082Z,11.93
2018-01-17T15:50:55.662Z,5.75
2018-01-17T15:53:24.242Z,8.88
2018-01-17T15:55:51.819Z,4.93
2018-01-17T15:58:19.446Z,7.05
2018-01-17T16:00:47.055Z,3.25
2018-01-17T16:03:14.630Z,3.90
2018-01-17T16:05:42.227Z,6.93
2018-01-17T16:08:09.806Z,2.87
2018-01-17T16:10:37.398Z,2.67
2018-01-17T16:13:05.815Z,6.90
2018-01-17T16:15:34.163Z,2.40
2018-01-17T16:18:01.749Z,4.30
2018-01-17T16:20:29.383Z,2.05
2018-01-17T16:22:56.962Z,9.52
2018-01-17T16:25:24.546Z,5.95
2018-01-17T16:27:55.459Z,4.60
2018-01-17T16:30:23.521Z,20.77
2018-01-17T16:32:51.175Z,27.40
2018-01-17T16:35:19.833Z,27.58
2018-01-17T16:37:47.552Z,14.10
2018-01-17T16:40:15.189Z,8.43
2018-01-17T16:42:42.834Z,5.65
2018-01-17T16:45:14.271Z,7.80
2018-01-17T16:47:41.880Z,4.15
2018-01-17T16:50:09.498Z,5.68
2018-01-17T16:52:37.141Z,15.15
2018-01-17T16:55:05.595Z,5.30
2018-01-17T16:57:33.249Z,7.80
2018-01-17T17:00:00.934Z,5.28
2018-01-17T17:02:28.581Z,2.95
2018-01-17T17:04:56.247Z,3.45
2018-01-17T17:07:23.856Z,12.35
2018-01-17T17:09:51.469Z,3.55
2018-01-17T17:12:20.348Z,3.80
2018-01-17T17:14:48.765Z,4.35
2018-01-17T17:17:16.418Z,7.87
2018-01-17T17:19:44.098Z,2.28
2018-01-17T17:22:11.764Z,4.75
2018-01-17T17:24:39.420Z,7.60
2018-01-17T17:27:07.161Z,4.65
2018-01-17T17:29:35.061Z,5.37
2018-01-17T17:32:02.706Z,7.25
2018-01-17T17:34:30.364Z,2.53
2018-01-17T17:36:58.789Z,7.68
2018-01-17T17:39:26.452Z,7.43
2018-01-17T17:41:54.209Z,3.80
2018-01-17T17:44:21.969Z,5.15
2018-01-17T17:46:49.752Z,11.73
2018-01-17T17:49:17.436Z,7.35
2018-01-17T17:51:45.064Z,3.80
2018-01-17T17:54:13.850Z,5.05
2018-01-17T17:56:42.676Z,5.78
2018-01-17T17:59:10.360Z,9.02
2018-01-17T18:01:38.189Z,6.32
2018-01-17T18:04:06.600Z,3.47
2018-01-17T18:06:34.313Z,11.75
2018-01-17T18:09:06.254Z,4.47
2018-01-17T18:11:33.900Z,4.05
2018-01-17T18:14:01.515Z,7.72
2018-01-17T18:16:29.212Z,9.02
2018-01-17T18:18:56.794Z,5.00
2018-01-17T18:21:24.417Z,5.00
2018-01-17T18:23:52.008Z,4.50
2018-01-17T18:26:19.591Z,4.40
2018-01-17T18:28:47.190Z,5.85
2018-01-17T18:31:14.864Z,5.18
2018-01-17T18:33:42.451Z,6.03
2018-01-17T18:36:10.046Z,3.35
2018-01-17T18:38:37.630Z,4.03
2018-01-17T18:41:05.231Z,13.62
2018-01-17T18:43:32.817Z,11.05
2018-01-17T18:46:01.173Z,8.13
2018-01-17T18:48:28.759Z,9.70
2018-01-17T18:50:57.111Z,10.35
2018-01-17T18:53:24.715Z,16.00
2018-01-17T18:55:52.305Z,14.63
2018-01-17T18:58:20.726Z,13.10
2018-01-17T19:00:48.347Z,10.30
2018-01-17T19:03:15.930Z,9.43
2018-01-17T19:05:43.535Z,6.22
2018-01-17T19:08:11.193Z,9.80
2018-01-17T19:10:38.787Z,8.60
2018-01-17T19:13:06.415Z,9.50
2018-01-17T19:15:33.996Z,9.57
2018-01-17T19:18:01.590Z,5.62
2018-01-17T19:20:29.931Z,9.18
2018-01-17T19:22:57.543Z,7.82
2018-01-17T19:25:25.390Z,5.25
2018-01-17T19:27:53.759Z,10.23
2018-01-17T19:30:21.357Z,10.60
2018-01-17T19:32:48.961Z,13.57
2018-01-17T19:35:16.594Z,14.60
2018-01-17T19:37:44.178Z,19.10
2018-01-17T19:40:11.766Z,14.02
2018-01-17T19:42:39.351Z,14.60
2018-01-17T19:45:06.946Z,16.35
2018-01-17T19:47:34.563Z,13.57
2018-01-17T19:50:03.035Z,13.43
2018-01-17T19:52:30.612Z,9.25
2018-01-17T19:54:58.199Z,15.55
2018-01-17T19:57:25.791Z,10.75
2018-01-17T19:59:53.369Z,9.23
2018-01-17T20:02:20.950Z,10.23
2018-01-17T20:04:48.531Z,9.15
2018-01-17T20:07:16.124Z,6.90
2018-01-17T20:09:44.484Z,6.35
2018-01-17T20:12:12.068Z,5.90
2018-01-17T20:14:39.745Z,11.77
2018-01-17T20:17:08.099Z,20.40
2018-01-17T20:19:35.683Z,6.18
2018-01-17T20:22:03.262Z,8.27
2018-01-17T20:24:31.651Z,16.02
2018-01-17T20:27:00.005Z,8.57
2018-01-17T20:29:27.608Z,4.87
2018-01-17T20:31:55.192Z,5.95
2018-01-17T20:34:22.829Z,7.10
2018-01-17T20:36:51.190Z,4.85
2018-01-17T20:39:24.500Z,4.65
2018-01-17T20:41:52.883Z,3.72
2018-01-17T20:44:21.238Z,2.83
2018-01-17T20:46:48.827Z,6.12
2018-01-17T20:49:17.180Z,4.62
2018-01-17T20:51:44.767Z,5.62
2018-01-17T20:54:12.355Z,4.45
2018-01-17T20:56:39.942Z,3.78
2018-01-17T20:59:07.544Z,4.60
2018-01-17T21:01:35.122Z,4.25
2018-01-17T21:04:02.707Z,4.62
2018-01-17T21:06:30.295Z,8.02
2018-01-17T21:08:57.879Z,4.62
2018-01-17T21:11:26.479Z,4.45
2018-01-17T21:13:54.066Z,4.12
2018-01-17T21:16:21.654Z,3.70
2018-01-17T21:18:50.056Z,4.70
2018-01-17T21:21:17.639Z,4.20
2018-01-17T21:23:45.236Z,5.18
2018-01-17T21:26:12.818Z,5.68
2018-01-17T21:28:41.190Z,5.90
2018-01-17T21:31:08.774Z,5.45
2018-01-17T21:33:36.407Z,4.80
2018-01-17T21:36:03.992Z,9.35
2018-01-17T21:38:32.410Z,5.62
2018-01-17T21:40:59.983Z,4.07
2018-01-17T21:43:33.237Z,9.27
2018-01-17T21:46:01.588Z,7.50
2018-01-17T21:48:29.176Z,5.45
2018-01-17T21:50:56.759Z,4.90
2018-01-17T21:53:25.107Z,6.90
2018-01-17T21:55:52.698Z,6.82
2018-01-17T21:58:21.041Z,6.68
2018-01-17T22:00:48.630Z,6.45
2018-01-17T22:03:16.246Z,9.77
2018-01-17T22:05:43.826Z,5.00
2018-01-17T22:08:11.475Z,24.33
2018-01-17T22:10:39.076Z,9.48
2018-01-17T22:13:06.704Z,4.53
2018-01-17T22:15:34.299Z,2.97
2018-01-17T22:18:01.902Z,4.05
2018-01-17T22:20:30.296Z,8.52
2018-01-17T22:22:57.881Z,4.05
2018-01-17T22:25:25.526Z,7.85
2018-01-17T22:27:53.887Z,10.40
2018-01-17T22:30:21.494Z,3.15
2018-01-17T22:32:49.083Z,3.05
2018-01-17T22:35:16.922Z,9.45
2018-01-17T22:37:44.511Z,6.60
2018-01-17T22:40:12.118Z,6.85
2018-01-17T22:42:40.484Z,3.08
2018-01-17T22:45:08.064Z,9.32
2018-01-17T22:47:35.729Z,3.37
2018-01-17T22:50:03.339Z,2.75
2018-01-17T22:52:30.933Z,3.08
2018-01-17T22:54:58.536Z,2.30
2018-01-17T22:57:26.936Z,2.50
2018-01-17T22:59:54.514Z,4.85
2018-01-17T23:02:22.119Z,7.50
2018-01-17T23:04:49.710Z,3.12
2018-01-17T23:07:18.150Z,2.85
2018-01-17T23:09:45.730Z,7.05
2018-01-17T23:12:13.314Z,2.50
2018-01-17T23:14:41.530Z,2.53
2018-01-17T23:17:09.199Z,2.58
2018-01-17T23:19:36.808Z,3.20
2018-01-17T23:22:05.593Z,2.25
2018-01-17T23:24:33.815Z,1.70
2018-01-17T23:27:02.163Z,2.22
2018-01-17T23:29:29.742Z,2.47
2018-01-17T23:31:57.331Z,3.45
2018-01-17T23:34:25.685Z,7.80
2018-01-17T23:36:53.262Z,3.85
2018-01-17T23:39:21.620Z,4.68
2018-01-17T23:41:49.203Z,4.35
2018-01-17T23:44:16.799Z,3.67
2018-01-17T23:46:44.383Z,2.53
2018-01-17T23:49:11.970Z,5.10
2018-01-17T23:51:39.581Z,9.13
2018-01-17T23:54:07.936Z,5.85
2018-01-17T23:56:35.530Z,6.45
2018-01-17T23:59:03.198Z,6.20
